Terminal Aerodrome Forecast
Issued by NWS Dallas/Fort Worth, TX

Home | Current Version | Previous Version | Text Only | Print | Product List | Glossary On
Versions: 1 2 3 4 5 6 7 8 9 10 11 12 13 14 15 16 17 18 19 20 21 22 23 24 25
000
FTUS44 KFWD 292000 AAA
TAFDFW
TAF AMD
KDFW 292057Z 2921/3024 16006KT P6SM SCT040 SCT250
     FM292300 18010KT P6SM VCSH BKN060
     FM300300 16008KT P6SM BKN250=

USA.gov is the U.S. government's official web portal to all federal, state and local government web resources and services.